This is the latest recevied weather packets stored in our database for station/object AB0TJ. If no packets are shown the sender has not sent any weather packets the latest 10 day(s).
| Time | Temp. | Humidity | Pressure | Rain* | Wind** | Luminosity | Snow |
|---|---|---|---|---|---|---|---|
| 1777833293 | 24.44° C | 18% | 1016.1 hPa | 0 mm | - | 755 W/m² | - |
| 1777832779 | 24.44° C | 19% | 1016 hPa | 0 mm | - | 850 W/m² | - |
| 1777827979 | 22.22° C | 23% | 1017.5 hPa | 0 mm | - | 509 W/m² | - |
| 1777825949 | 21.11° C | 23% | 1017.6 hPa | 0 mm | - | 510 W/m² | - |
| 1777825413 | 20.56° C | 24% | 1017.6 hPa | 0 mm | - | 510 W/m² | - |
| 1777824923 | 20° C | 24% | 1017.9 hPa | 0 mm | - | 474 W/m² | - |
| 1777824419 | 19.44° C | 25% | 1017.8 hPa | 0 mm | - | 494 W/m² | - |
| 1777821626 | 15.56° C | 30% | 1018.4 hPa | 0 mm | - | 220 W/m² | - |
| 1777811829 | 8.89° C | 40% | 1018.4 hPa | 0 mm | - | 14 W/m² | - |
| 1777811299 | 8.89° C | 40% | 1018.4 hPa | 0 mm | - | 8 W/m² | - |
| 1777806980 | 9.44° C | 36% | 1018.3 hPa | 0 mm | - | 0 W/m² | - |
| 1777803739 | 10° C | 38% | 1017.9 hPa | 0 mm | - | 0 W/m² | - |
| 1777802673 | 10° C | 38% | 1017.9 hPa | 0 mm | - | 0 W/m² | - |
| 1777800974 | 8.89° C | 43% | 1018.2 hPa | 0 mm | - | 0 W/m² | - |
| 1777800471 | 8.89° C | 44% | 1018 hPa | 0 mm | - | 0 W/m² | - |
| 1777799979 | 8.89° C | 43% | 1018 hPa | 0 mm | - | 0 W/m² | - |
| 1777799399 | 8.89° C | 43% | 1017.9 hPa | 0 mm | - | 0 W/m² | - |
| 1777798829 | 9.44° C | 43% | 1017.8 hPa | 0 mm | - | 0 W/m² | - |
| 1777798258 | 9.44° C | 42% | 1017.8 hPa | 0 mm | - | 0 W/m² | - |
| 1777797669 | 10° C | 41% | 1018 hPa | 0 mm | - | 0 W/m² | - |
| 1777797119 | 10° C | 40% | 1018 hPa | 0 mm | - | 0 W/m² | - |
| 1777796532 | 10° C | 39% | 1018.1 hPa | 0 mm | - | 0 W/m² | - |
| 1777796049 | 10° C | 39% | 1018.1 hPa | 0 mm | - | 0 W/m² | - |
| 1777795529 | 10° C | 40% | 1018.1 hPa | 0 mm | - | 0 W/m² | - |
| 1777794944 | 9.44° C | 41% | 1018.3 hPa | 0 mm | - | 0 W/m² | - |
* Rain latest hour (hover to see other rain measurements)
** Current wind speed in m/s (hover to see current wind gust speed)